Old Union, Texas
Current Conditions -  °F | °C
As of 6:15 PM on Wednesday 26 Nov 2014 (Local Time) from KLXY Reporting Station
Clear Clear  
Wind Chill: 58°   Ceiling: Unl
Heat Index: 58°   Visibility: 10mi
Dew Point: 31°   Wind: 5mph
Humidity: 36%   Direction: 340°NNW
Pressure: 30.24"   Gusts: NA
Location:  31.4027°N, 96.4988°W
Report Text: KLXY 270015Z AUTO 34004KT 10SM CLR 15/00 A3024 RMK AO2 T01451005
Loading
Personal Weather Stations






























Interactive Weather Map New forecast layout! Learn more

10-Day Weather Forecast

Advertisements
Track Severe Weather on mobile